sensor_id;sensor_type;location;lat;lon;timestamp;pressure;altitude;pressure_sealevel;temperature;humidity
53300;BME280;39187;48.476;8.310;2022-08-21T00:01:30;91568.38;;;14.86;75.63
53300;BME280;39187;48.476;8.310;2022-08-21T00:03:56;91563.78;;;14.74;76.57
53300;BME280;39187;48.476;8.310;2022-08-21T00:06:22;91568.50;;;14.82;75.99
53300;BME280;39187;48.476;8.310;2022-08-21T00:08:50;91561.31;;;14.79;76.18
53300;BME280;39187;48.476;8.310;2022-08-21T00:11:17;91554.47;;;14.78;76.08
53300;BME280;39187;48.476;8.310;2022-08-21T00:13:43;91552.97;;;14.77;76.37
53300;BME280;39187;48.476;8.310;2022-08-21T00:16:09;91553.28;;;14.79;76.17
53300;BME280;39187;48.476;8.310;2022-08-21T00:18:35;91554.91;;;14.77;76.52
53300;BME280;39187;48.476;8.310;2022-08-21T00:21:01;91552.63;;;14.75;76.42
53300;BME280;39187;48.476;8.310;2022-08-21T00:23:26;91551.03;;;14.78;75.85
53300;BME280;39187;48.476;8.310;2022-08-21T00:25:52;91552.22;;;14.77;76.22
53300;BME280;39187;48.476;8.310;2022-08-21T00:28:18;91538.84;;;14.64;76.07
53300;BME280;39187;48.476;8.310;2022-08-21T00:30:45;91541.38;;;14.68;76.25
53300;BME280;39187;48.476;8.310;2022-08-21T00:33:12;91539.03;;;14.70;75.86
53300;BME280;39187;48.476;8.310;2022-08-21T00:35:39;91542.34;;;14.74;75.72
53300;BME280;39187;48.476;8.310;2022-08-21T00:38:07;91542.78;;;14.72;75.23
53300;BME280;39187;48.476;8.310;2022-08-21T00:40:55;91544.81;;;14.68;74.70
53300;BME280;39187;48.476;8.310;2022-08-21T00:43:24;91539.47;;;14.68;74.76
53300;BME280;39187;48.476;8.310;2022-08-21T00:45:51;91542.91;;;14.69;74.47
53300;BME280;39187;48.476;8.310;2022-08-21T00:48:19;91537.97;;;14.67;74.53
53300;BME280;39187;48.476;8.310;2022-08-21T00:50:58;91532.59;;;14.67;74.12
53300;BME280;39187;48.476;8.310;2022-08-21T00:53:26;91534.22;;;14.65;73.70
53300;BME280;39187;48.476;8.310;2022-08-21T00:55:52;91535.41;;;14.64;73.62
53300;BME280;39187;48.476;8.310;2022-08-21T00:58:19;91533.47;;;14.64;73.43
53300;BME280;39187;48.476;8.310;2022-08-21T01:00:47;91528.66;;;14.59;73.72
53300;BME280;39187;48.476;8.310;2022-08-21T01:03:16;91526.41;;;14.58;73.63
53300;BME280;39187;48.476;8.310;2022-08-21T01:05:44;91520.28;;;14.57;73.74
53300;BME280;39187;48.476;8.310;2022-08-21T01:08:12;91522.56;;;14.59;73.66
53300;BME280;39187;48.476;8.310;2022-08-21T01:10:38;91522.56;;;14.59;73.52
53300;BME280;39187;48.476;8.310;2022-08-21T01:13:09;91522.97;;;14.57;73.31
53300;BME280;39187;48.476;8.310;2022-08-21T01:15:40;91523.81;;;14.54;72.62
53300;BME280;39187;48.476;8.310;2022-08-21T01:18:09;91528.44;;;14.54;72.66
53300;BME280;39187;48.476;8.310;2022-08-21T01:20:37;91527.59;;;14.57;72.17
53300;BME280;39187;48.476;8.310;2022-08-21T01:23:05;91522.56;;;14.59;72.14
53300;BME280;39187;48.476;8.310;2022-08-21T01:25:31;91522.84;;;14.61;72.11
53300;BME280;39187;48.476;8.310;2022-08-21T01:27:59;91525.22;;;14.59;71.88
53300;BME280;39187;48.476;8.310;2022-08-21T01:30:27;91514.41;;;14.62;71.83
53300;BME280;39187;48.476;8.310;2022-08-21T01:32:53;91529.28;;;14.63;71.70
53300;BME280;39187;48.476;8.310;2022-08-21T01:35:20;91521.59;;;14.65;71.58
53300;BME280;39187;48.476;8.310;2022-08-21T01:37:48;91514.41;;;14.62;70.85
53300;BME280;39187;48.476;8.310;2022-08-21T01:40:15;91510.53;;;14.63;70.25
53300;BME280;39187;48.476;8.310;2022-08-21T01:42:42;91512.78;;;14.65;70.37
53300;BME280;39187;48.476;8.310;2022-08-21T01:45:08;91507.75;;;14.67;70.34
53300;BME280;39187;48.476;8.310;2022-08-21T01:47:35;91503.47;;;14.69;69.88
53300;BME280;39187;48.476;8.310;2022-08-21T01:50:03;91513.75;;;14.71;69.89
53300;BME280;39187;48.476;8.310;2022-08-21T01:52:29;91515.25;;;14.72;69.58
53300;BME280;39187;48.476;8.310;2022-08-21T01:54:55;91503.69;;;14.62;69.56
53300;BME280;39187;48.476;8.310;2022-08-21T01:57:21;91511.16;;;14.67;69.67
53300;BME280;39187;48.476;8.310;2022-08-21T01:59:46;91504.44;;;14.63;70.26
53300;BME280;39187;48.476;8.310;2022-08-21T02:02:12;91499.28;;;14.68;69.88
53300;BME280;39187;48.476;8.310;2022-08-21T02:04:37;91502.16;;;14.74;69.67
53300;BME280;39187;48.476;8.310;2022-08-21T02:07:03;91496.91;;;14.83;69.48
53300;BME280;39187;48.476;8.310;2022-08-21T02:09:29;91494.03;;;14.77;69.93
53300;BME280;39187;48.476;8.310;2022-08-21T02:11:55;91496.16;;;14.82;69.90
53300;BME280;39187;48.476;8.310;2022-08-21T02:14:20;91491.22;;;14.81;69.71
53300;BME280;39187;48.476;8.310;2022-08-21T02:16:46;91496.03;;;14.86;69.79
53300;BME280;39187;48.476;8.310;2022-08-21T02:19:14;91491.84;;;14.85;69.48
53300;BME280;39187;48.476;8.310;2022-08-21T02:21:40;91491.97;;;14.81;69.78
53300;BME280;39187;48.476;8.310;2022-08-21T02:24:07;91483.72;;;14.76;69.89
53300;BME280;39187;48.476;8.310;2022-08-21T02:26:32;91482.56;;;14.77;69.64
53300;BME280;39187;48.476;8.310;2022-08-21T02:28:58;91481.13;;;14.85;69.37
53300;BME280;39187;48.476;8.310;2022-08-21T02:31:24;91478.75;;;14.87;69.14
53300;BME280;39187;48.476;8.310;2022-08-21T02:33:50;91480.25;;;14.88;69.44
53300;BME280;39187;48.476;8.310;2022-08-21T02:36:16;91473.72;;;14.89;69.38
53300;BME280;39187;48.476;8.310;2022-08-21T02:38:43;91475.84;;;14.94;69.12
53300;BME280;39187;48.476;8.310;2022-08-21T02:41:13;91478.09;;;14.96;69.20
53300;BME280;39187;48.476;8.310;2022-08-21T02:43:39;91474.69;;;14.95;69.13
53300;BME280;39187;48.476;8.310;2022-08-21T02:46:06;91475.75;;;14.98;68.55
53300;BME280;39187;48.476;8.310;2022-08-21T02:48:33;91478.72;;;15.00;68.44
53300;BME280;39187;48.476;8.310;2022-08-21T02:51:03;91485.25;;;14.99;68.53
53300;BME280;39187;48.476;8.310;2022-08-21T02:53:30;91479.47;;;15.00;68.71
53300;BME280;39187;48.476;8.310;2022-08-21T02:55:58;91471.75;;;15.02;68.84
53300;BME280;39187;48.476;8.310;2022-08-21T02:58:27;91473.13;;;15.07;68.88
53300;BME280;39187;48.476;8.310;2022-08-21T03:00:54;91478.81;;;15.09;69.00
53300;BME280;39187;48.476;8.310;2022-08-21T03:03:20;91477.75;;;15.06;68.77
53300;BME280;39187;48.476;8.310;2022-08-21T03:05:47;91475.19;;;15.03;68.87
53300;BME280;39187;48.476;8.310;2022-08-21T03:08:14;91485.78;;;15.06;68.99
53300;BME280;39187;48.476;8.310;2022-08-21T03:10:43;91476.38;;;15.02;69.58
53300;BME280;39187;48.476;8.310;2022-08-21T03:13:09;91478.16;;;15.05;69.46
53300;BME280;39187;48.476;8.310;2022-08-21T03:15:36;91474.31;;;15.06;69.56
53300;BME280;39187;48.476;8.310;2022-08-21T03:18:03;91476.25;;;15.05;69.89
53300;BME280;39187;48.476;8.310;2022-08-21T03:20:30;91470.59;;;15.03;69.55
53300;BME280;39187;48.476;8.310;2022-08-21T03:22:57;91466.59;;;15.08;69.74
53300;BME280;39187;48.476;8.310;2022-08-21T03:25:24;91468.53;;;15.07;69.69
53300;BME280;39187;48.476;8.310;2022-08-21T03:27:50;91475.72;;;15.10;69.77
53300;BME280;39187;48.476;8.310;2022-08-21T03:30:16;91479.75;;;15.15;69.70
53300;BME280;39187;48.476;8.310;2022-08-21T03:32:42;91474.81;;;15.13;69.69
53300;BME280;39187;48.476;8.310;2022-08-21T03:35:09;91472.91;;;15.14;69.38
53300;BME280;39187;48.476;8.310;2022-08-21T03:37:35;91479.88;;;15.11;69.58
53300;BME280;39187;48.476;8.310;2022-08-21T03:40:03;91468.38;;;15.11;69.76
53300;BME280;39187;48.476;8.310;2022-08-21T03:42:29;91468.84;;;15.09;69.67
53300;BME280;39187;48.476;8.310;2022-08-21T03:44:54;91467.34;;;15.08;69.85
53300;BME280;39187;48.476;8.310;2022-08-21T03:47:20;91460.91;;;15.06;69.73
53300;BME280;39187;48.476;8.310;2022-08-21T03:49:47;91462.84;;;15.05;69.65
53300;BME280;39187;48.476;8.310;2022-08-21T03:52:12;91463.16;;;15.07;69.88
53300;BME280;39187;48.476;8.310;2022-08-21T03:54:38;91458.56;;;15.08;69.49
53300;BME280;39187;48.476;8.310;2022-08-21T03:57:05;91460.47;;;15.07;69.98
53300;BME280;39187;48.476;8.310;2022-08-21T03:59:31;91466.16;;;15.09;69.67
53300;BME280;39187;48.476;8.310;2022-08-21T04:01:59;91471.06;;;15.11;69.82
53300;BME280;39187;48.476;8.310;2022-08-21T04:04:26;91464.97;;;15.10;69.58
53300;BME280;39187;48.476;8.310;2022-08-21T04:06:52;91468.38;;;15.11;69.48
53300;BME280;39187;48.476;8.310;2022-08-21T04:09:19;91465.28;;;15.12;69.72
53300;BME280;39187;48.476;8.310;2022-08-21T04:11:45;91467.97;;;15.12;69.43
53300;BME280;39187;48.476;8.310;2022-08-21T04:14:11;91478.69;;;15.12;69.57
53300;BME280;39187;48.476;8.310;2022-08-21T04:16:37;91477.50;;;15.13;69.78
53300;BME280;39187;48.476;8.310;2022-08-21T04:19:03;91477.50;;;15.13;69.78
53300;BME280;39187;48.476;8.310;2022-08-21T04:21:30;91485.13;;;15.15;69.93
53300;BME280;39187;48.476;8.310;2022-08-21T04:23:56;91477.84;;;15.15;69.98
53300;BME280;39187;48.476;8.310;2022-08-21T04:26:22;91474.41;;;15.15;69.77
53300;BME280;39187;48.476;8.310;2022-08-21T04:28:48;91486.16;;;15.17;70.32
53300;BME280;39187;48.476;8.310;2022-08-21T04:31:13;91479.00;;;15.14;70.36
53300;BME280;39187;48.476;8.310;2022-08-21T04:33:39;91482.88;;;15.13;70.46
53300;BME280;39187;48.476;8.310;2022-08-21T04:36:05;91484.19;;;15.09;70.70
53300;BME280;39187;48.476;8.310;2022-08-21T04:38:32;91481.78;;;15.11;70.34
53300;BME280;39187;48.476;8.310;2022-08-21T04:40:58;91488.56;;;15.15;70.23
53300;BME280;39187;48.476;8.310;2022-08-21T04:43:23;91488.56;;;15.15;70.36
53300;BME280;39187;48.476;8.310;2022-08-21T04:45:50;91482.75;;;15.17;70.25
53300;BME280;39187;48.476;8.310;2022-08-21T04:48:20;91492.59;;;15.20;69.77
53300;BME280;39187;48.476;8.310;2022-08-21T04:50:56;91481.16;;;15.41;69.16
53300;BME280;39187;48.476;8.310;2022-08-21T04:56:04;91490.78;;;16.35;65.62
53300;BME280;39187;48.476;8.310;2022-08-21T04:58:34;91495.13;;;16.72;63.85
53300;BME280;39187;48.476;8.310;2022-08-21T05:01:01;91483.41;;;17.06;62.29
53300;BME280;39187;48.476;8.310;2022-08-21T05:03:28;91489.69;;;17.49;60.64
53300;BME280;39187;48.476;8.310;2022-08-21T05:05:56;91484.00;;;17.83;59.10
53300;BME280;39187;48.476;8.310;2022-08-21T05:08:24;91492.28;;;18.22;57.86
53300;BME280;39187;48.476;8.310;2022-08-21T05:10:51;91489.66;;;18.46;57.27
53300;BME280;39187;48.476;8.310;2022-08-21T05:13:17;91492.03;;;18.95;55.73
53300;BME280;39187;48.476;8.310;2022-08-21T05:15:42;91501.06;;;19.30;54.55
53300;BME280;39187;48.476;8.310;2022-08-21T05:18:08;91503.53;;;19.67;53.03
53300;BME280;39187;48.476;8.310;2022-08-21T05:20:34;91499.13;;;20.22;52.18
53300;BME280;39187;48.476;8.310;2022-08-21T05:23:00;91500.69;;;20.73;50.87
53300;BME280;39187;48.476;8.310;2022-08-21T05:25:26;91498.34;;;21.15;49.37
53300;BME280;39187;48.476;8.310;2022-08-21T05:27:51;91501.19;;;21.47;47.91
53300;BME280;39187;48.476;8.310;2022-08-21T05:30:17;91495.28;;;21.89;46.90
53300;BME280;39187;48.476;8.310;2022-08-21T05:32:43;91491.59;;;22.12;46.45
53300;BME280;39187;48.476;8.310;2022-08-21T05:35:08;91495.47;;;22.31;46.30
53300;BME280;39187;48.476;8.310;2022-08-21T05:37:34;91494.75;;;22.68;45.76
53300;BME280;39187;48.476;8.310;2022-08-21T05:40:01;91494.41;;;22.86;45.11
53300;BME280;39187;48.476;8.310;2022-08-21T05:42:27;91494.44;;;23.29;44.04
53300;BME280;39187;48.476;8.310;2022-08-21T05:44:53;91498.31;;;23.59;43.48
53300;BME280;39187;48.476;8.310;2022-08-21T05:47:18;91489.06;;;23.93;42.95
53300;BME280;39187;48.476;8.310;2022-08-21T05:49:44;91483.63;;;24.10;43.02
53300;BME280;39187;48.476;8.310;2022-08-21T05:52:10;91496.00;;;24.17;42.90
53300;BME280;39187;48.476;8.310;2022-08-21T05:54:37;91495.84;;;24.54;41.85
53300;BME280;39187;48.476;8.310;2022-08-21T05:57:03;91499.06;;;24.80;40.93
53300;BME280;39187;48.476;8.310;2022-08-21T05:59:29;91494.09;;;24.84;40.27
53300;BME280;39187;48.476;8.310;2022-08-21T06:01:54;91489.13;;;25.10;40.21
53300;BME280;39187;48.476;8.310;2022-08-21T06:04:20;91491.63;;;25.20;39.39
53300;BME280;39187;48.476;8.310;2022-08-21T06:06:46;91490.13;;;25.19;39.37
53300;BME280;39187;48.476;8.310;2022-08-21T06:09:12;91491.38;;;25.98;38.92
53300;BME280;39187;48.476;8.310;2022-08-21T06:11:38;91491.84;;;26.02;39.50
53300;BME280;39187;48.476;8.310;2022-08-21T06:14:04;91493.75;;;26.12;37.59
53300;BME280;39187;48.476;8.310;2022-08-21T06:16:31;91491.84;;;26.02;38.00
53300;BME280;39187;48.476;8.310;2022-08-21T06:18:57;91488.28;;;26.18;38.05
53300;BME280;39187;48.476;8.310;2022-08-21T06:21:23;91485.94;;;25.92;37.71
53300;BME280;39187;48.476;8.310;2022-08-21T06:23:48;91490.94;;;25.82;37.74
53300;BME280;39187;48.476;8.310;2022-08-21T06:26:14;91490.44;;;25.84;35.99
53300;BME280;39187;48.476;8.310;2022-08-21T06:28:41;91492.72;;;26.21;36.31
53300;BME280;39187;48.476;8.310;2022-08-21T06:31:18;91491.41;;;26.74;34.77
53300;BME280;39187;48.476;8.310;2022-08-21T06:33:44;91492.06;;;26.50;35.55
53300;BME280;39187;48.476;8.310;2022-08-21T06:36:10;91490.69;;;27.28;34.19
53300;BME280;39187;48.476;8.310;2022-08-21T06:38:37;91492.63;;;27.08;33.62
53300;BME280;39187;48.476;8.310;2022-08-21T06:41:03;91484.16;;;26.47;35.07
53300;BME280;39187;48.476;8.310;2022-08-21T06:43:29;91483.25;;;26.33;35.64
53300;BME280;39187;48.476;8.310;2022-08-21T06:45:55;91486.44;;;26.72;35.14
53300;BME280;39187;48.476;8.310;2022-08-21T06:48:20;91481.94;;;27.35;33.78
53300;BME280;39187;48.476;8.310;2022-08-21T06:50:46;91481.53;;;27.74;33.56
53300;BME280;39187;48.476;8.310;2022-08-21T06:53:14;91490.25;;;27.91;33.68
53300;BME280;39187;48.476;8.310;2022-08-21T06:55:41;91487.50;;;28.15;33.01
53300;BME280;39187;48.476;8.310;2022-08-21T06:58:08;91484.72;;;26.69;34.25
53300;BME280;39187;48.476;8.310;2022-08-21T07:00:36;91483.75;;;27.27;33.13
53300;BME280;39187;48.476;8.310;2022-08-21T07:03:03;91483.22;;;27.28;34.75
53300;BME280;39187;48.476;8.310;2022-08-21T07:05:30;91487.00;;;27.74;33.09
53300;BME280;39187;48.476;8.310;2022-08-21T07:07:56;91480.06;;;27.24;33.82
53300;BME280;39187;48.476;8.310;2022-08-21T07:10:23;91487.31;;;27.16;32.86
53300;BME280;39187;48.476;8.310;2022-08-21T07:12:50;91481.50;;;27.55;32.38
53300;BME280;39187;48.476;8.310;2022-08-21T07:15:16;91481.25;;;27.77;32.96
53300;BME280;39187;48.476;8.310;2022-08-21T07:17:42;91480.34;;;26.14;32.75
53300;BME280;39187;48.476;8.310;2022-08-21T07:20:08;91480.72;;;27.06;33.07
53300;BME280;39187;48.476;8.310;2022-08-21T07:22:35;91477.31;;;27.24;32.82
53300;BME280;39187;48.476;8.310;2022-08-21T07:25:02;91481.34;;;26.58;33.28
53300;BME280;39187;48.476;8.310;2022-08-21T07:27:28;91469.91;;;27.43;32.47
53300;BME280;39187;48.476;8.310;2022-08-21T07:29:54;91479.13;;;28.08;31.84
53300;BME280;39187;48.476;8.310;2022-08-21T07:32:19;91479.31;;;27.48;31.28
53300;BME280;39187;48.476;8.310;2022-08-21T07:34:45;91475.88;;;27.66;31.04
53300;BME280;39187;48.476;8.310;2022-08-21T07:37:10;91475.59;;;28.31;29.82
53300;BME280;39187;48.476;8.310;2022-08-21T07:39:36;91468.03;;;28.69;30.01
53300;BME280;39187;48.476;8.310;2022-08-21T07:42:01;91472.44;;;28.78;30.13
53300;BME280;39187;48.476;8.310;2022-08-21T07:44:28;91472.50;;;28.73;29.67
53300;BME280;39187;48.476;8.310;2022-08-21T07:46:54;91479.22;;;29.35;29.73
53300;BME280;39187;48.476;8.310;2022-08-21T07:49:19;91476.25;;;29.46;29.32
53300;BME280;39187;48.476;8.310;2022-08-21T07:51:45;91478.72;;;29.76;28.83
53300;BME280;39187;48.476;8.310;2022-08-21T07:54:10;91475.91;;;29.24;28.92
53300;BME280;39187;48.476;8.310;2022-08-21T07:56:36;91482.50;;;29.47;29.57
53300;BME280;39187;48.476;8.310;2022-08-21T07:59:02;91480.88;;;28.80;29.63
53300;BME280;39187;48.476;8.310;2022-08-21T08:01:28;91479.88;;;29.09;29.24
53300;BME280;39187;48.476;8.310;2022-08-21T08:03:54;91482.84;;;28.48;30.27
53300;BME280;39187;48.476;8.310;2022-08-21T08:06:20;91469.84;;;28.67;29.91
53300;BME280;39187;48.476;8.310;2022-08-21T08:08:46;91476.53;;;28.53;29.67
53300;BME280;39187;48.476;8.310;2022-08-21T08:11:13;91478.28;;;27.94;30.66
53300;BME280;39187;48.476;8.310;2022-08-21T08:13:47;91469.91;;;27.43;31.08
53300;BME280;39187;48.476;8.310;2022-08-21T08:16:14;91465.72;;;28.04;30.83
53300;BME280;39187;48.476;8.310;2022-08-21T08:18:40;91466.13;;;28.33;30.34
53300;BME280;39187;48.476;8.310;2022-08-21T08:21:07;91463.34;;;27.03;30.22
53300;BME280;39187;48.476;8.310;2022-08-21T08:23:33;91461.78;;;27.81;29.55
53300;BME280;39187;48.476;8.310;2022-08-21T08:25:59;91463.50;;;26.16;31.01
53300;BME280;39187;48.476;8.310;2022-08-21T08:28:25;91462.16;;;25.92;30.87
53300;BME280;39187;48.476;8.310;2022-08-21T08:30:50;91461.16;;;26.31;30.33
53300;BME280;39187;48.476;8.310;2022-08-21T08:33:17;91454.38;;;26.02;29.89
53300;BME280;39187;48.476;8.310;2022-08-21T08:35:45;91450.66;;;26.76;28.90
53300;BME280;39187;48.476;8.310;2022-08-21T08:38:11;91457.50;;;26.58;30.26
53300;BME280;39187;48.476;8.310;2022-08-21T08:40:47;91451.88;;;26.81;29.80
53300;BME280;39187;48.476;8.310;2022-08-21T08:43:17;91453.63;;;27.32;30.07
53300;BME280;39187;48.476;8.310;2022-08-21T08:45:46;91454.78;;;27.85;28.79
53300;BME280;39187;48.476;8.310;2022-08-21T08:48:30;91456.06;;;28.22;28.68
53300;BME280;39187;48.476;8.310;2022-08-21T08:50:57;91452.44;;;28.14;28.48
53300;BME280;39187;48.476;8.310;2022-08-21T08:53:32;91452.78;;;27.43;29.45
53300;BME280;39187;48.476;8.310;2022-08-21T08:56:00;91451.94;;;27.72;29.51
53300;BME280;39187;48.476;8.310;2022-08-21T08:58:39;91444.94;;;27.58;30.22
53300;BME280;39187;48.476;8.310;2022-08-21T09:01:14;91444.84;;;27.64;29.62
53300;BME280;39187;48.476;8.310;2022-08-21T09:03:41;91436.94;;;27.60;30.00
53300;BME280;39187;48.476;8.310;2022-08-21T09:09:07;91436.06;;;27.71;29.75
53300;BME280;39187;48.476;8.310;2022-08-21T09:12:02;91434.25;;;27.55;30.57
53300;BME280;39187;48.476;8.310;2022-08-21T09:15:32;91431.47;;;27.60;31.07
53300;BME280;39187;48.476;8.310;2022-08-21T09:20:51;91435.91;;;26.60;31.73
53300;BME280;39187;48.476;8.310;2022-08-21T09:26:24;91431.13;;;26.37;32.39
53300;BME280;39187;48.476;8.310;2022-08-21T09:28:54;91430.22;;;26.23;32.68
53300;BME280;39187;48.476;8.310;2022-08-21T09:33:58;91428.81;;;26.11;33.86
53300;BME280;39187;48.476;8.310;2022-08-21T09:36:44;91423.50;;;26.29;32.62
53300;BME280;39187;48.476;8.310;2022-08-21T09:39:21;91426.19;;;26.65;32.71
53300;BME280;39187;48.476;8.310;2022-08-21T09:41:58;91428.91;;;25.31;33.59
53300;BME280;39187;48.476;8.310;2022-08-21T09:44:27;91428.44;;;25.27;34.37
53300;BME280;39187;48.476;8.310;2022-08-21T09:46:52;91434.75;;;25.63;34.12
53300;BME280;39187;48.476;8.310;2022-08-21T09:49:27;91432.69;;;26.21;33.73
53300;BME280;39187;48.476;8.310;2022-08-21T09:51:54;91433.47;;;26.51;33.30
53300;BME280;39187;48.476;8.310;2022-08-21T09:54:32;91421.56;;;26.13;33.47
53300;BME280;39187;48.476;8.310;2022-08-21T09:57:23;91422.91;;;25.43;34.55
53300;BME280;39187;48.476;8.310;2022-08-21T10:00:28;91419.63;;;26.08;34.09
53300;BME280;39187;48.476;8.310;2022-08-21T10:03:08;91413.88;;;26.17;33.50
53300;BME280;39187;48.476;8.310;2022-08-21T10:05:34;91424.03;;;25.76;34.06
53300;BME280;39187;48.476;8.310;2022-08-21T10:08:00;91418.91;;;25.61;34.56
53300;BME280;39187;48.476;8.310;2022-08-21T10:10:29;91419.16;;;25.52;34.25
53300;BME280;39187;48.476;8.310;2022-08-21T10:13:08;91417.16;;;25.64;35.01
53300;BME280;39187;48.476;8.310;2022-08-21T10:16:16;91415.78;;;25.92;33.95
53300;BME280;39187;48.476;8.310;2022-08-21T10:21:57;91415.06;;;26.22;33.32
53300;BME280;39187;48.476;8.310;2022-08-21T10:24:42;91410.69;;;25.72;33.48
53300;BME280;39187;48.476;8.310;2022-08-21T10:27:23;91410.19;;;24.83;34.85
53300;BME280;39187;48.476;8.310;2022-08-21T10:30:08;91410.50;;;25.59;33.90
53300;BME280;39187;48.476;8.310;2022-08-21T10:32:51;91409.94;;;25.72;33.95
53300;BME280;39187;48.476;8.310;2022-08-21T10:35:33;91400.91;;;25.88;33.23
53300;BME280;39187;48.476;8.310;2022-08-21T10:44:26;91402.88;;;25.41;33.71
53300;BME280;39187;48.476;8.310;2022-08-21T10:47:06;91398.56;;;25.56;33.73
53300;BME280;39187;48.476;8.310;2022-08-21T10:49:42;91395.06;;;25.67;33.85
53300;BME280;39187;48.476;8.310;2022-08-21T10:55:20;91396.16;;;25.94;33.51
53300;BME280;39187;48.476;8.310;2022-08-21T10:57:50;91399.75;;;26.13;33.72
53300;BME280;39187;48.476;8.310;2022-08-21T11:00:21;91395.38;;;26.05;34.08
53300;BME280;39187;48.476;8.310;2022-08-21T11:03:07;91397.50;;;25.76;33.90
53300;BME280;39187;48.476;8.310;2022-08-21T11:05:47;91387.69;;;26.03;33.61
53300;BME280;39187;48.476;8.310;2022-08-21T11:08:39;91396.16;;;25.42;34.59
53300;BME280;39187;48.476;8.310;2022-08-21T11:13:42;91399.94;;;25.85;35.46
53300;BME280;39187;48.476;8.310;2022-08-21T11:16:26;91394.25;;;25.83;35.43
53300;BME280;39187;48.476;8.310;2022-08-21T11:19:17;91396.50;;;25.79;35.36
53300;BME280;39187;48.476;8.310;2022-08-21T11:22:01;91393.59;;;25.03;36.63
53300;BME280;39187;48.476;8.310;2022-08-21T11:24:35;91389.91;;;24.89;37.08
53300;BME280;39187;48.476;8.310;2022-08-21T11:29:48;91386.50;;;24.27;38.86
53300;BME280;39187;48.476;8.310;2022-08-21T11:38:40;91395.94;;;22.80;42.63
53300;BME280;39187;48.476;8.310;2022-08-21T11:41:28;91385.03;;;22.32;43.66
53300;BME280;39187;48.476;8.310;2022-08-21T11:47:03;91390.56;;;22.54;44.06
53300;BME280;39187;48.476;8.310;2022-08-21T11:49:46;91393.00;;;22.78;43.71
53300;BME280;39187;48.476;8.310;2022-08-21T11:52:54;91389.59;;;22.15;44.60
53300;BME280;39187;48.476;8.310;2022-08-21T11:55:50;91389.47;;;22.35;44.04
53300;BME280;39187;48.476;8.310;2022-08-21T11:58:24;91386.78;;;22.40;44.17
53300;BME280;39187;48.476;8.310;2022-08-21T12:01:01;91378.59;;;22.29;43.92
53300;BME280;39187;48.476;8.310;2022-08-21T12:03:30;91385.38;;;22.14;44.53
53300;BME280;39187;48.476;8.310;2022-08-21T12:06:08;91382.94;;;22.53;44.64
53300;BME280;39187;48.476;8.310;2022-08-21T12:08:38;91386.94;;;22.63;44.45
53300;BME280;39187;48.476;8.310;2022-08-21T12:11:21;91386.69;;;22.66;44.31
53300;BME280;39187;48.476;8.310;2022-08-21T12:14:11;91377.09;;;22.28;44.03
53300;BME280;39187;48.476;8.310;2022-08-21T12:16:40;91379.31;;;22.30;45.04
53300;BME280;39187;48.476;8.310;2022-08-21T12:19:10;91367.94;;;22.20;45.51
53300;BME280;39187;48.476;8.310;2022-08-21T12:24:48;91370.56;;;22.46;44.72
53300;BME280;39187;48.476;8.310;2022-08-21T12:29:47;91375.06;;;22.60;43.74
53300;BME280;39187;48.476;8.310;2022-08-21T12:34:50;91378.63;;;22.72;43.36
53300;BME280;39187;48.476;8.310;2022-08-21T12:37:38;91372.34;;;22.18;43.69
53300;BME280;39187;48.476;8.310;2022-08-21T12:40:14;91375.31;;;22.20;43.70
53300;BME280;39187;48.476;8.310;2022-08-21T12:42:48;91374.34;;;22.23;43.74
53300;BME280;39187;48.476;8.310;2022-08-21T12:45:31;91381.56;;;22.31;43.75
53300;BME280;39187;48.476;8.310;2022-08-21T12:50:49;91375.31;;;22.57;42.72
53300;BME280;39187;48.476;8.310;2022-08-21T12:55:53;91371.50;;;22.37;41.28
53300;BME280;39187;48.476;8.310;2022-08-21T12:58:25;91373.31;;;22.52;41.13
53300;BME280;39187;48.476;8.310;2022-08-21T13:00:54;91367.19;;;22.57;41.66
53300;BME280;39187;48.476;8.310;2022-08-21T13:03:22;91373.81;;;22.56;41.75
53300;BME280;39187;48.476;8.310;2022-08-21T13:05:48;91367.19;;;22.57;41.99
53300;BME280;39187;48.476;8.310;2022-08-21T13:08:17;91368.88;;;22.54;42.54
53300;BME280;39187;48.476;8.310;2022-08-21T13:10:45;91368.31;;;22.39;43.39
53300;BME280;39187;48.476;8.310;2022-08-21T13:13:19;91372.28;;;22.44;43.99
53300;BME280;39187;48.476;8.310;2022-08-21T13:15:46;91370.59;;;22.52;43.87
53300;BME280;39187;48.476;8.310;2022-08-21T13:18:23;91372.34;;;22.55;44.07
53300;BME280;39187;48.476;8.310;2022-08-21T13:20:49;91377.09;;;22.65;44.12
53300;BME280;39187;48.476;8.310;2022-08-21T13:23:27;91373.88;;;22.67;45.38
53300;BME280;39187;48.476;8.310;2022-08-21T13:25:55;91376.84;;;22.63;44.79
53300;BME280;39187;48.476;8.310;2022-08-21T13:28:22;91365.19;;;22.52;44.37
53300;BME280;39187;48.476;8.310;2022-08-21T13:30:50;91363.72;;;22.56;44.50
53300;BME280;39187;48.476;8.310;2022-08-21T13:33:20;91361.00;;;22.56;44.81
53300;BME280;39187;48.476;8.310;2022-08-21T13:38:31;91364.66;;;22.11;44.38
53300;BME280;39187;48.476;8.310;2022-08-21T13:43:34;91359.38;;;22.33;44.50
53300;BME280;39187;48.476;8.310;2022-08-21T13:46:02;91348.34;;;22.42;44.13
53300;BME280;39187;48.476;8.310;2022-08-21T13:48:33;91349.81;;;22.43;44.26
53300;BME280;39187;48.476;8.310;2022-08-21T13:51:00;91358.41;;;22.36;44.60
53300;BME280;39187;48.476;8.310;2022-08-21T13:53:35;91362.00;;;22.22;44.79
53300;BME280;39187;48.476;8.310;2022-08-21T13:56:03;91355.06;;;22.15;44.93
53300;BME280;39187;48.476;8.310;2022-08-21T13:58:45;91348.16;;;22.51;43.60
53300;BME280;39187;48.476;8.310;2022-08-21T14:01:33;91351.28;;;22.75;44.11
53300;BME280;39187;48.476;8.310;2022-08-21T14:04:04;91352.50;;;22.74;43.86
53300;BME280;39187;48.476;8.310;2022-08-21T14:06:35;91348.13;;;22.94;43.51
53300;BME280;39187;48.476;8.310;2022-08-21T14:09:12;91344.97;;;23.06;43.25
53300;BME280;39187;48.476;8.310;2022-08-21T14:11:38;91348.19;;;23.05;43.51
53300;BME280;39187;48.476;8.310;2022-08-21T14:14:32;91341.53;;;23.06;43.99